Time;durP1;ratioP1;P1;durP2;ratioP2;P2;SDS_P1;SDS_P2;PMS_P1;PMS_P2;Temp;Humidity;BMP_temperature;BMP_pressure;BME280_temperature;BME280_humidity;BME280_pressure;Samples;Min_cycle;Max_cycle;Signal;HPM_P1;HPM_P2
2022/05/19 00:01:06;;;;;;;4.00;3.28;;;;;;;10.78;73.96;102468.31;4938173;29;20059;-92
2022/05/19 00:03:36;;;;;;;4.78;3.38;;;;;;;10.84;73.65;102481.16;4923132;29;20460;-92
2022/05/19 00:06:02;;;;;;;4.65;3.20;;;;;;;10.85;73.04;102477.69;4939240;29;20110;-92
2022/05/19 00:08:27;;;;;;;4.85;3.40;;;;;;;10.85;73.09;102488.88;4923489;29;20039;-92
2022/05/19 00:10:55;;;;;;;4.50;3.30;;;;;;;10.87;73.34;102492.28;4923046;28;20039;-92
2022/05/19 00:13:21;;;;;;;5.68;3.28;;;;;;;10.75;74.17;102484.78;4923453;29;20031;-92
2022/05/19 00:15:47;;;;;;;4.45;3.50;;;;;;;10.75;73.37;102489.09;4923502;29;20027;-92
2022/05/19 00:18:12;;;;;;;5.82;3.33;;;;;;;10.66;73.03;102482.38;4939733;29;20059;-92
2022/05/19 00:20:38;;;;;;;5.28;3.33;;;;;;;10.65;73.55;102487.59;4939815;29;20031;-92
2022/05/19 00:23:03;;;;;;;5.70;3.67;;;;;;;10.72;73.54;102487.44;4940692;29;20512;-92
2022/05/19 00:25:30;;;;;;;5.80;3.45;;;;;;;10.73;74.08;102485.69;4923957;29;20126;-91
2022/05/19 00:27:55;;;;;;;4.97;3.33;;;;;;;10.76;73.66;102498.56;4924642;29;20073;-91
2022/05/19 00:30:21;;;;;;;4.57;3.50;;;;;;;10.69;72.80;102496.97;4922987;29;20031;-92
2022/05/19 00:32:48;;;;;;;4.45;3.38;;;;;;;10.52;73.32;102494.72;4922911;29;20042;-91
2022/05/19 00:35:14;;;;;;;5.35;3.50;;;;;;;10.49;74.64;102485.28;4923240;29;20038;-92
2022/05/19 00:37:40;;;;;;;5.38;4.00;;;;;;;10.58;74.47;102487.69;4939546;29;20075;-92
2022/05/19 00:40:06;;;;;;;5.35;3.65;;;;;;;10.58;74.89;102482.50;4923254;29;20027;-91
2022/05/19 00:42:43;;;;;;;6.82;4.45;;;;;;;10.55;73.70;102490.34;4923294;29;20027;-92
2022/05/19 00:45:16;;;;;;;4.38;3.53;;;;;;;10.42;74.16;102483.72;4926101;29;20504;-92
2022/05/19 00:48:05;;;;;;;9.23;3.45;;;;;;;10.43;74.83;102484.56;4923928;29;20035;-91
2022/05/19 00:50:43;;;;;;;4.03;3.53;;;;;;;10.41;75.11;102487.16;4954981;29;20047;-92
2022/05/19 00:53:52;;;;;;;5.72;3.97;;;;;;;10.44;74.19;102496.63;4925445;29;20054;-91
2022/05/19 00:56:46;;;;;;;5.68;3.50;;;;;;;10.49;74.78;102500.81;4956015;29;20042;-92
2022/05/19 00:59:13;;;;;;;5.90;3.70;;;;;;;10.48;74.96;102490.50;4926771;29;20054;-91
2022/05/19 01:01:40;;;;;;;4.97;3.55;;;;;;;10.55;74.56;102492.94;4924080;29;20035;-92
2022/05/19 01:04:09;;;;;;;5.72;4.22;;;;;;;10.47;74.93;102502.56;4924158;29;20056;-92
2022/05/19 01:06:34;;;;;;;6.00;3.85;;;;;;;10.46;75.54;102500.88;4924536;29;20164;-92
2022/05/19 01:09:02;;;;;;;7.88;4.07;;;;;;;10.44;75.15;102484.53;4923575;29;20531;-93
2022/05/19 01:11:28;;;;;;;5.00;3.97;;;;;;;10.44;74.76;102492.28;4939942;29;20035;-92
2022/05/19 01:13:55;;;;;;;6.68;4.40;;;;;;;10.41;75.20;102500.09;4923917;29;20035;-92
2022/05/19 01:16:20;;;;;;;4.90;4.10;;;;;;;10.40;75.09;102498.38;4924733;29;20027;-92
2022/05/19 01:18:46;;;;;;;4.97;4.05;;;;;;;10.37;74.49;102498.44;4924123;29;20042;-91
2022/05/19 01:21:13;;;;;;;7.78;4.20;;;;;;;10.40;74.14;102492.34;4923884;29;20033;-92
2022/05/19 01:23:45;;;;;;;8.18;4.80;;;;;;;10.27;74.21;102494.31;4925910;29;20031;-92
2022/05/19 01:26:32;;;;;;;7.13;4.05;;;;;;;10.26;74.31;102497.78;4942275;29;20694;-91
2022/05/19 01:28:58;;;;;;;7.20;4.32;;;;;;;10.21;73.66;102494.38;4958211;29;20058;-92
2022/05/19 01:31:44;;;;;;;6.72;4.18;;;;;;;10.22;73.88;102501.28;4926580;29;20039;-91
2022/05/19 01:34:09;;;;;;;8.75;4.85;;;;;;;10.06;74.78;102500.69;4942892;29;20031;-91
2022/05/19 01:36:35;;;;;;;7.03;4.70;;;;;;;10.06;74.46;102501.53;4927136;29;20576;-92
2022/05/19 01:39:05;;;;;;;10.35;4.90;;;;;;;10.10;74.91;102507.50;4926159;29;20027;-91
2022/05/19 01:41:33;;;;;;;9.43;5.22;;;;;;;10.13;74.87;102506.59;4942231;29;20074;-92
2022/05/19 01:44:17;;;;;;;11.60;5.07;;;;;;;10.21;74.33;102515.94;4942060;29;20035;-91
2022/05/19 01:46:42;;;;;;;6.85;4.32;;;;;;;10.24;73.88;102509.91;4959541;28;20027;-92
2022/05/19 01:49:49;;;;;;;8.20;4.75;;;;;;;10.27;73.69;102515.88;4927239;29;20042;-91
2022/05/19 01:52:16;;;;;;;8.90;5.10;;;;;;;10.31;72.96;102507.16;4926225;29;20043;-92
2022/05/19 01:54:55;;;;;;;8.23;5.20;;;;;;;10.35;73.06;102523.50;4943252;29;20032;-92
2022/05/19 01:57:58;;;;;;;7.75;5.13;;;;;;;10.23;73.79;102523.72;4959049;29;20023;-91
2022/05/19 02:00:25;;;;;;;7.95;5.00;;;;;;;10.28;73.41;102516.72;4957655;29;20079;-91
2022/05/19 02:02:58;;;;;;;10.13;5.10;;;;;;;10.19;74.28;102516.84;4929441;29;20118;-91
2022/05/19 02:05:34;;;;;;;6.13;4.00;;;;;;;10.07;73.75;102526.53;4943153;29;20073;-91
2022/05/19 02:08:00;;;;;;;7.25;4.50;;;;;;;10.00;73.54;102530.06;4943058;29;20027;-92
2022/05/19 02:10:31;;;;;;;6.50;4.70;;;;;;;9.86;74.07;102529.47;4942231;29;20031;-91
2022/05/19 02:12:58;;;;;;;8.07;4.70;;;;;;;9.89;74.16;102536.31;4927988;29;20042;-91
2022/05/19 02:15:25;;;;;;;7.82;4.82;;;;;;;9.74;74.65;102535.69;4927428;29;20031;-92
2022/05/19 02:17:51;;;;;;;8.88;5.15;;;;;;;9.70;75.12;102525.38;4928586;29;20027;-91
2022/05/19 02:20:18;;;;;;;7.53;4.97;;;;;;;9.65;75.48;102522.88;4928131;29;20394;-92
2022/05/19 02:22:44;;;;;;;10.23;5.60;;;;;;;9.55;76.11;102533.38;4945032;29;20039;-91
2022/05/19 02:25:14;;;;;;;8.88;6.10;;;;;;;9.45;76.45;102522.31;4928957;29;20031;-92
2022/05/19 02:27:53;;;;;;;9.73;5.90;;;;;;;9.38;76.03;102526.72;4942962;29;20086;-92
2022/05/19 02:30:26;;;;;;;10.55;5.40;;;;;;;9.48;75.89;102542.94;4943143;29;20420;-92
2022/05/19 02:32:52;;;;;;;8.80;5.20;;;;;;;9.45;75.96;102543.84;4926747;29;20027;-92
2022/05/19 02:35:18;;;;;;;8.80;5.53;;;;;;;9.43;76.38;102543.00;4941335;29;20494;-92
2022/05/19 02:37:43;;;;;;;8.65;5.43;;;;;;;9.39;76.88;102551.66;4928178;29;20055;-90
2022/05/19 02:40:10;;;;;;;11.48;5.68;;;;;;;9.41;77.13;102552.50;4926854;29;20038;-91
2022/05/19 02:42:36;;;;;;;10.18;5.80;;;;;;;9.38;77.63;102556.84;4926955;29;20073;-91
2022/05/19 02:45:02;;;;;;;11.35;5.50;;;;;;;9.39;77.51;102553.41;4927080;29;20122;-91
2022/05/19 02:47:28;;;;;;;11.82;6.30;;;;;;;9.45;77.81;102554.19;4928557;29;20063;-92
2022/05/19 02:49:53;;;;;;;13.52;7.22;;;;;;;9.42;78.25;102551.63;4926786;29;20460;-91
2022/05/19 02:52:19;;;;;;;11.23;6.45;;;;;;;9.39;78.56;102555.97;4935156;29;20036;-91
2022/05/19 02:54:44;;;;;;;14.30;6.57;;;;;;;9.49;78.79;102563.59;4956385;29;20051;-91
2022/05/19 02:57:10;;;;;;;17.77;7.60;;;;;;;9.54;78.56;102570.41;4945563;28;20031;-92
2022/05/19 02:59:35;;;;;;;10.75;5.22;;;;;;;10.24;78.56;102562.50;4960725;29;20055;-91
2022/05/19 03:02:01;;;;;;;10.63;4.57;;;;;;;11.44;72.56;102566.22;4922952;29;20035;-91
2022/05/19 03:04:26;;;;;;;9.60;5.45;;;;;;;11.56;71.42;102568.53;4922511;29;20043;-93
2022/05/19 03:06:52;;;;;;;10.80;5.82;;;;;;;11.36;71.62;102565.53;4938613;29;20035;-91
2022/05/19 03:09:18;;;;;;;10.75;5.68;;;;;;;11.24;72.24;102564.06;4938377;29;20027;-91
2022/05/19 03:11:43;;;;;;;12.10;5.93;;;;;;;11.30;71.62;102573.44;4938646;29;20035;-92
2022/05/19 03:14:09;;;;;;;14.80;5.57;;;;;;;11.43;71.74;102580.06;4922737;29;20027;-93
2022/05/19 03:16:36;;;;;;;10.73;5.13;;;;;;;12.02;69.86;102573.56;4938256;29;20098;-90
2022/05/19 03:19:02;;;;;;;9.55;5.32;;;;;;;11.86;70.07;102559.25;4922619;29;20031;-92
2022/05/19 03:21:27;;;;;;;8.82;5.32;;;;;;;12.35;68.54;102571.03;4938764;29;20034;-92
2022/05/19 03:23:53;;;;;;;8.65;5.80;;;;;;;12.21;68.24;102566.19;4938273;29;20046;-91
2022/05/19 03:26:18;;;;;;;12.93;6.30;;;;;;;11.78;69.82;102564.56;4938410;29;20548;-91
2022/05/19 03:28:44;;;;;;;11.00;6.47;;;;;;;11.70;70.72;102573.41;4954987;29;20042;-91
2022/05/19 03:31:10;;;;;;;13.85;5.97;;;;;;;11.51;71.48;102588.53;4938060;29;20031;-93
2022/05/19 03:33:35;;;;;;;11.35;5.72;;;;;;;12.05;69.71;102586.47;4922254;29;20058;-91
2022/05/19 03:36:01;;;;;;;13.15;6.05;;;;;;;11.78;69.86;102577.53;4937799;29;20038;-91
2022/05/19 03:38:27;;;;;;;9.32;5.75;;;;;;;11.58;70.94;102579.72;4940695;29;20114;-92
2022/05/19 03:40:53;;;;;;;10.57;6.38;;;;;;;11.14;72.21;102563.41;4940617;29;20041;-90
2022/05/19 03:43:18;;;;;;;12.15;7.00;;;;;;;11.11;72.58;102579.00;4936624;29;20133;-87
2022/05/19 03:45:44;;;;;;;14.32;7.35;;;;;;;10.82;73.54;102570.97;4951686;28;20070;-87
2022/05/19 03:48:09;;;;;;;11.52;6.93;;;;;;;10.76;74.59;102573.66;4936468;29;20114;-86
2022/05/19 03:50:35;;;;;;;13.68;7.10;;;;;;;10.78;74.36;102588.25;4936256;29;20485;-85
2022/05/19 03:53:00;;;;;;;11.00;6.65;;;;;;;10.67;74.26;102568.63;4935696;29;20027;-84
2022/05/19 03:55:26;;;;;;;10.13;6.68;;;;;;;10.67;74.94;102576.41;4920190;29;20087;-85
2022/05/19 03:57:52;;;;;;;10.65;6.78;;;;;;;10.78;75.31;102590.84;4935574;29;20039;-84
2022/05/19 04:00:18;;;;;;;14.20;7.28;;;;;;;10.82;75.16;102586.50;4919922;29;20086;-84
2022/05/19 04:02:45;;;;;;;11.18;7.15;;;;;;;10.76;75.30;102584.84;4936179;29;20078;-84
2022/05/19 04:05:11;;;;;;;9.05;6.18;;;;;;;10.85;74.96;102591.59;4935998;29;20034;-83
2022/05/19 04:07:37;;;;;;;9.10;6.30;;;;;;;10.72;74.37;102556.47;4919342;29;20031;-85
2022/05/19 04:10:03;;;;;;;7.68;5.80;;;;;;;10.90;74.37;102592.34;4935513;29;21053;-84
2022/05/19 04:12:29;;;;;;;10.75;6.57;;;;;;;10.89;74.51;102582.88;4919405;29;20089;-86
2022/05/19 04:14:55;;;;;;;9.82;6.75;;;;;;;11.03;74.28;102600.75;4934197;29;20054;-87
2022/05/19 04:17:21;;;;;;;12.50;6.85;;;;;;;11.01;74.83;102593.03;4918660;29;20039;-85
2022/05/19 04:19:46;;;;;;;17.75;7.00;;;;;;;11.02;75.12;102580.94;4935003;29;20163;-84
2022/05/19 04:22:12;;;;;;;16.00;7.35;;;;;;;11.12;75.24;102601.44;4951574;29;20462;-89
2022/05/19 04:24:37;;;;;;;18.58;7.82;;;;;;;11.13;74.96;102595.38;4910962;29;20078;-91
2022/05/19 04:27:03;;;;;;;18.23;7.68;;;;;;;11.15;75.51;102595.34;4917816;29;20035;-91
2022/05/19 04:29:29;;;;;;;18.33;7.88;;;;;;;11.20;75.54;102604.69;4922414;29;20514;-89
2022/05/19 04:31:54;;;;;;;26.20;11.35;;;;;;;11.18;75.63;102608.22;4936295;29;20035;-89
2022/05/19 04:34:20;;;;;;;27.80;11.60;;;;;;;11.15;75.31;102593.59;4919950;29;20027;-87
2022/05/19 04:36:46;;;;;;;26.13;10.68;;;;;;;11.17;75.83;102602.19;4918289;29;20098;-87
2022/05/19 04:39:13;;;;;;;23.63;9.23;;;;;;;11.27;75.65;102595.06;4938079;29;20058;-91
2022/05/19 04:41:38;;;;;;;22.52;9.57;;;;;;;11.20;76.33;102596.94;4901844;29;20118;-90
2022/05/19 04:44:04;;;;;;;20.27;8.93;;;;;;;11.19;76.37;102605.59;4909007;28;23238;-91
2022/05/19 04:46:30;;;;;;;20.45;9.43;;;;;;;11.24;76.18;102610.69;4957359;28;20033;-90
2022/05/19 04:48:56;;;;;;;18.30;8.23;;;;;;;11.11;76.54;102599.72;4955496;28;20031;-92
2022/05/19 04:51:22;;;;;;;21.08;10.07;;;;;;;11.19;76.54;102618.53;4938792;28;20089;-90
2022/05/19 04:53:47;;;;;;;22.55;8.95;;;;;;;11.10;77.10;102597.16;4939160;28;20627;-92
2022/05/19 04:56:13;;;;;;;21.10;12.52;;;;;;;11.27;77.15;102614.97;4979154;28;20035;-92
2022/05/19 04:58:38;;;;;;;30.50;13.82;;;;;;;11.32;76.43;102620.91;4944287;28;20115;-92
2022/05/19 05:01:04;;;;;;;18.65;9.88;;;;;;;11.19;76.83;102610.78;4943943;29;20512;-92
2022/05/19 05:03:30;;;;;;;24.95;9.95;;;;;;;11.29;76.82;102627.00;4945592;29;20501;-89
2022/05/19 05:05:55;;;;;;;23.40;10.88;;;;;;;11.28;77.02;102638.25;4944141;28;20031;-89
2022/05/19 05:08:21;;;;;;;22.27;11.02;;;;;;;10.99;77.56;102597.34;4946935;28;20052;-90
2022/05/19 05:10:47;;;;;;;23.80;10.88;;;;;;;11.23;77.91;102632.31;4981773;28;20034;-85
2022/05/19 05:13:13;;;;;;;20.02;10.48;;;;;;;11.28;77.87;102621.84;4973996;28;20038;-86
2022/05/19 05:15:39;;;;;;;23.10;11.32;;;;;;;11.44;77.42;102631.03;4973916;28;20400;-89
2022/05/19 05:18:05;;;;;;;24.60;11.57;;;;;;;11.43;77.56;102632.75;4942332;28;20476;-85
2022/05/19 05:20:31;;;;;;;31.00;12.93;;;;;;;11.48;77.40;102630.06;4957330;28;20054;-83
2022/05/19 05:22:56;;;;;;;24.15;11.18;;;;;;;11.53;77.68;102630.84;4973075;28;20037;-86
2022/05/19 05:25:22;;;;;;;25.55;12.02;;;;;;;11.50;78.70;102641.25;4958121;28;20034;-91
2022/05/19 05:27:48;;;;;;;21.95;11.60;;;;;;;11.60;77.85;102645.38;4958651;28;20433;-88
2022/05/19 05:30:13;;;;;;;27.17;11.52;;;;;;;11.75;78.24;102642.44;4942711;28;20085;-90
2022/05/19 05:32:39;;;;;;;24.63;11.65;;;;;;;11.91;77.59;102639.56;4944607;28;20477;-90
2022/05/19 05:35:05;;;;;;;23.25;11.52;;;;;;;11.90;77.52;102635.25;4942353;28;20030;-86
2022/05/19 05:37:31;;;;;;;27.98;12.45;;;;;;;12.01;77.45;102638.47;4974253;28;20027;-90
2022/05/19 05:39:56;;;;;;;24.90;11.90;;;;;;;12.03;77.49;102634.94;4958695;28;20027;-87
2022/05/19 05:42:22;;;;;;;25.08;11.90;;;;;;;12.17;77.05;102647.56;4941756;28;20039;-88
2022/05/19 05:44:48;;;;;;;23.15;12.20;;;;;;;12.21;76.85;102636.25;4934785;28;20119;-87
2022/05/19 05:47:14;;;;;;;22.02;12.15;;;;;;;12.20;76.35;102642.34;4937010;28;20027;-86
2022/05/19 05:49:39;;;;;;;25.85;12.32;;;;;;;12.21;75.96;102641.44;4953537;29;20098;-86
2022/05/19 05:52:05;;;;;;;21.75;11.57;;;;;;;12.27;76.18;102656.84;4947256;28;20031;-88
2022/05/19 05:54:31;;;;;;;19.33;11.25;;;;;;;12.29;75.97;102649.03;4938739;29;20031;-90
2022/05/19 05:56:56;;;;;;;25.85;12.68;;;;;;;12.34;75.94;102640.25;4951723;29;20063;-85
2022/05/19 05:59:22;;;;;;;20.55;11.30;;;;;;;12.63;75.33;102654.25;4924906;28;20539;-89
2022/05/19 06:01:47;;;;;;;23.02;12.63;;;;;;;12.61;75.17;102638.72;4994078;23;20062;-85
2022/05/19 06:04:13;;;;;;;23.42;13.23;;;;;;;12.77;75.28;102643.50;4943029;29;20028;-90
2022/05/19 06:06:38;;;;;;;18.63;11.35;;;;;;;13.00;73.61;102653.31;4914503;29;20413;-88
2022/05/19 06:09:04;;;;;;;18.60;11.43;;;;;;;13.06;73.52;102651.38;4902241;29;20067;-85
2022/05/19 06:11:29;;;;;;;19.08;10.80;;;;;;;13.18;72.97;102658.00;4932507;29;20044;-86
2022/05/19 06:13:55;;;;;;;46.85;29.45;;;;;;;13.30;72.69;102655.09;4918344;29;20106;-88
2022/05/19 06:16:20;;;;;;;20.40;10.98;;;;;;;13.14;72.23;102628.63;4917595;29;20032;-87
2022/05/19 06:18:46;;;;;;;19.75;10.88;;;;;;;13.43;72.33;102651.25;4933470;29;20027;-90
2022/05/19 06:21:11;;;;;;;23.58;11.50;;;;;;;13.50;72.71;102657.13;4950504;29;20038;-85
2022/05/19 06:23:37;;;;;;;23.20;11.20;;;;;;;13.67;72.83;102664.44;4921490;29;20027;-88
2022/05/19 06:26:03;;;;;;;20.00;10.55;;;;;;;13.66;72.25;102665.31;4899696;29;20028;-89
2022/05/19 06:28:28;;;;;;;30.60;18.25;;;;;;;13.70;72.25;102664.34;4920035;29;20046;-85
2022/05/19 06:30:54;;;;;;;13.15;9.65;;;;;;;13.95;72.03;102669.66;4931073;29;20489;-88
2022/05/19 06:33:21;;;;;;;19.05;10.50;;;;;;;13.95;72.30;102667.88;4934341;29;20076;-83
2022/05/19 06:35:46;;;;;;;19.30;11.13;;;;;;;14.06;72.04;102665.84;4901015;29;20028;-82
2022/05/19 06:38:12;;;;;;;17.23;10.68;;;;;;;14.14;72.06;102664.72;4916365;29;20035;-88
2022/05/19 06:40:38;;;;;;;15.85;10.48;;;;;;;14.28;70.52;102658.19;4890640;29;20516;-88
2022/05/19 06:43:08;;;;;;;17.00;11.05;;;;;;;14.48;71.33;102660.19;4913965;29;20035;-84
2022/05/19 06:45:33;;;;;;;13.73;9.75;;;;;;;14.46;70.89;102669.81;4895666;28;20442;-85
2022/05/19 06:47:59;;;;;;;16.90;10.68;;;;;;;14.44;70.13;102655.94;4913668;29;20035;-82
2022/05/19 06:50:24;;;;;;;16.25;10.65;;;;;;;14.30;70.39;102658.16;4935200;29;20040;-88
2022/05/19 06:52:52;;;;;;;15.70;10.60;;;;;;;14.40;71.15;102666.50;4919107;29;20110;-90
2022/05/19 06:55:19;;;;;;;13.73;10.23;;;;;;;14.45;70.56;102660.25;4919770;29;20035;-87
2022/05/19 06:57:45;;;;;;;15.05;9.88;;;;;;;14.56;70.69;102660.78;4918803;29;20059;-89
2022/05/19 07:00:16;;;;;;;15.98;11.32;;;;;;;14.69;70.25;102660.38;4933378;29;20063;-91
2022/05/19 07:02:50;;;;;;;13.32;10.07;;;;;;;14.74;70.39;102661.03;4919301;29;20028;-85
2022/05/19 07:05:21;;;;;;;17.40;12.73;;;;;;;14.80;70.27;102647.81;4946855;28;20031;-90
2022/05/19 07:07:47;;;;;;;15.27;10.00;;;;;;;15.07;70.21;102654.69;4935160;29;20034;-90
2022/05/19 07:10:14;;;;;;;15.48;10.43;;;;;;;15.23;69.22;102654.97;4912209;29;20027;-90
2022/05/19 07:12:40;;;;;;;12.55;9.55;;;;;;;15.39;68.59;102655.25;4916034;29;20500;-90
2022/05/19 07:15:06;;;;;;;35.03;21.27;;;;;;;15.35;68.48;102659.75;4940923;29;20035;-87
2022/05/19 07:17:31;;;;;;;31.17;19.75;;;;;;;15.65;67.83;102659.56;4894860;29;20216;-91
2022/05/19 07:22:41;;;;;;;13.00;8.50;;;;;;;16.04;67.06;102638.88;4922780;29;20055;-86
2022/05/19 07:25:08;;;;;;;11.52;8.50;;;;;;;15.97;67.92;102646.09;4933559;29;20044;-92
2022/05/19 07:27:34;;;;;;;12.50;8.38;;;;;;;16.18;67.12;102639.16;4916129;29;20118;-88
2022/05/19 07:30:00;;;;;;;13.25;8.32;;;;;;;16.40;65.23;102635.66;4930186;29;20470;-87
2022/05/19 07:32:26;;;;;;;11.90;7.63;;;;;;;16.47;64.51;102642.34;4908690;29;20055;-88
2022/05/19 07:34:52;;;;;;;11.07;7.75;;;;;;;16.58;64.73;102633.13;4916076;29;20028;-93
2022/05/19 07:37:18;;;;;;;23.40;12.68;;;;;;;16.87;64.40;102641.53;4927853;29;20034;-91
2022/05/19 07:39:44;;;;;;;12.65;8.55;;;;;;;17.13;63.45;102627.31;4920637;29;20035;-89
2022/05/19 07:42:09;;;;;;;11.40;7.90;;;;;;;17.41;62.97;102619.91;4897674;29;20458;-91
2022/05/19 07:44:35;;;;;;;11.60;7.82;;;;;;;17.47;60.95;102614.38;4907171;28;20052;-89
2022/05/19 07:47:00;;;;;;;13.68;8.68;;;;;;;17.55;61.84;102631.50;4906572;29;20028;-88
2022/05/19 07:49:26;;;;;;;14.43;8.85;;;;;;;17.63;62.65;102621.53;4916599;29;20039;-87
2022/05/19 07:51:51;;;;;;;10.43;7.88;;;;;;;17.83;62.07;102618.84;4931925;29;20493;-88
2022/05/19 07:54:22;;;;;;;9.98;8.15;;;;;;;17.95;61.46;102615.63;4912909;29;20032;-93
2022/05/19 07:56:48;;;;;;;12.30;8.52;;;;;;;17.93;60.70;102620.09;4911751;29;20050;-88
2022/05/19 07:59:15;;;;;;;15.32;8.70;;;;;;;18.02;60.68;102619.66;4919408;29;20031;-92
2022/05/19 08:01:41;;;;;;;12.27;8.27;;;;;;;18.06;60.51;102620.34;4918025;29;20437;-94
2022/05/19 08:04:07;;;;;;;11.85;8.25;;;;;;;18.26;59.51;102614.97;4899693;29;20135;-89
2022/05/19 08:06:33;;;;;;;14.07;7.75;;;;;;;18.44;58.76;102614.97;4901032;29;20039;-93
2022/05/19 08:08:59;;;;;;;13.27;8.32;;;;;;;18.49;59.67;102619.09;4905272;29;20028;-86
2022/05/19 08:11:28;;;;;;;15.25;8.23;;;;;;;18.65;58.24;102616.53;4914254;29;20481;-87
2022/05/19 08:16:38;;;;;;;11.32;7.30;;;;;;;18.73;56.71;102613.53;4929228;29;20092;-88
2022/05/19 08:19:03;;;;;;;9.32;7.13;;;;;;;18.68;57.41;102599.78;4942313;29;20035;-88
2022/05/19 08:21:30;;;;;;;11.15;7.55;;;;;;;18.91;58.06;102604.72;4918350;29;20165;-91
2022/05/19 08:23:55;;;;;;;12.50;7.47;;;;;;;18.84;57.18;102569.22;4939899;29;20023;-90
2022/05/19 08:26:21;;;;;;;14.77;8.00;;;;;;;19.13;55.98;102604.41;4943802;28;20035;-89
2022/05/19 08:28:47;;;;;;;9.98;7.78;;;;;;;19.16;55.67;102599.81;4912064;29;20087;-90
2022/05/19 08:31:16;;;;;;;10.63;7.00;;;;;;;19.26;55.26;102601.97;4897257;29;20054;-93
2022/05/19 08:33:42;;;;;;;11.13;6.75;;;;;;;19.45;54.25;102600.03;4911647;29;20044;-89
2022/05/19 08:36:08;;;;;;;10.70;7.30;;;;;;;19.52;53.85;102580.38;4908767;29;20036;-87
2022/05/19 08:38:34;;;;;;;11.30;7.78;;;;;;;19.71;53.21;102599.47;4929920;29;20034;-84
2022/05/19 08:41:02;;;;;;;12.43;7.20;;;;;;;19.84;51.87;102598.75;4910170;29;20040;-87
2022/05/19 08:43:50;;;;;;;13.25;6.50;;;;;;;19.98;51.42;102593.59;4929066;29;20031;-84
2022/05/19 08:46:21;;;;;;;10.77;6.13;;;;;;;20.10;52.29;102571.00;4891256;28;20060;-88
2022/05/19 08:48:49;;;;;;;10.10;7.10;;;;;;;20.39;50.97;102578.03;4908757;29;20028;-86
2022/05/19 08:51:16;;;;;;;11.52;6.10;;;;;;;20.33;50.15;102555.56;4914842;29;20035;-90
2022/05/19 08:53:42;;;;;;;12.00;7.90;;;;;;;20.71;52.23;102578.72;4898503;29;20032;-93
2022/05/19 08:56:22;;;;;;;12.45;5.60;;;;;;;20.88;50.13;102560.16;4900847;29;20051;-91
2022/05/19 08:59:03;;;;;;;6.55;5.75;;;;;;;21.05;49.55;102566.16;4924539;29;20058;-88
2022/05/19 09:01:37;;;;;;;8.50;5.47;;;;;;;21.05;49.16;102560.88;4931788;29;20067;-86
2022/05/19 09:04:05;;;;;;;6.85;5.55;;;;;;;21.22;47.47;102565.91;4912270;29;20039;-84
2022/05/19 09:09:52;;;;;;;12.10;5.30;;;;;;;21.63;47.51;102547.50;4916411;29;20043;-85
2022/05/19 09:12:19;;;;;;;9.55;5.45;;;;;;;21.82;47.26;102555.03;4926235;29;20557;-86
2022/05/19 09:14:45;;;;;;;6.53;4.63;;;;;;;21.96;46.86;102539.16;4910563;29;20091;-91
2022/05/19 09:17:11;;;;;;;11.23;5.00;;;;;;;22.14;45.79;102533.63;4906932;29;20027;-90
2022/05/19 09:19:42;;;;;;;6.72;5.10;;;;;;;22.23;44.49;102530.38;4900831;29;20481;-84
2022/05/19 09:22:16;;;;;;;6.30;5.03;;;;;;;22.27;42.86;102545.03;4924042;29;20038;-85
2022/05/19 09:24:44;;;;;;;9.88;4.45;;;;;;;22.32;43.90;102532.38;4925257;29;20127;-87
2022/05/19 09:27:09;;;;;;;7.45;3.78;;;;;;;22.37;41.93;102530.25;4937314;28;20038;-89
2022/05/19 09:29:40;;;;;;;6.25;3.75;;;;;;;22.46;42.39;102536.69;4925021;29;20062;-88
2022/05/19 09:32:13;;;;;;;5.32;4.10;;;;;;;22.31;42.87;102533.31;4906725;29;20031;-88
2022/05/19 09:34:44;;;;;;;7.30;4.40;;;;;;;22.12;40.70;102490.69;4921111;29;20043;-88
2022/05/19 09:37:20;;;;;;;8.02;4.25;;;;;;;22.49;44.14;102521.50;4912200;29;20409;-89
2022/05/19 09:39:53;;;;;;;7.00;3.40;;;;;;;22.47;39.12;102523.41;4908820;29;20517;-89
2022/05/19 09:42:29;;;;;;;5.93;3.50;;;;;;;22.66;41.15;102519.50;4924595;29;20051;-87
2022/05/19 09:44:56;;;;;;;8.27;3.00;;;;;;;23.01;35.45;102522.28;4926857;28;20497;-88
2022/05/19 09:47:29;;;;;;;6.75;2.80;;;;;;;23.25;36.54;102509.13;4929981;29;20119;-90
2022/05/19 09:50:01;;;;;;;6.10;2.92;;;;;;;23.23;37.85;102516.31;4934848;29;20556;-86
2022/05/19 09:52:26;;;;;;;6.03;2.10;;;;;;;23.41;31.88;102501.78;4934001;29;20055;-92
2022/05/19 09:54:57;;;;;;;7.55;2.30;;;;;;;23.29;29.73;102494.72;4930415;29;20081;-91
2022/05/19 09:57:39;;;;;;;5.63;2.70;;;;;;;23.60;31.61;102504.78;4905743;29;20027;-90
2022/05/19 10:00:18;;;;;;;7.07;3.38;;;;;;;23.60;34.59;102504.78;4920704;28;21017;-90
2022/05/19 10:02:45;;;;;;;6.30;2.10;;;;;;;23.82;33.01;102509.28;4912613;29;20043;-88
2022/05/19 10:05:32;;;;;;;4.05;2.00;;;;;;;23.59;27.17;102502.22;4927993;29;20122;-90
2022/05/19 10:08:04;;;;;;;7.18;2.22;;;;;;;23.54;26.19;102489.34;4935391;28;20031;-93
2022/05/19 10:10:30;;;;;;;3.92;1.80;;;;;;;23.75;25.29;102500.97;4911762;29;20031;-86
2022/05/19 10:13:02;;;;;;;4.25;1.60;;;;;;;23.85;24.34;102473.84;4926453;29;20550;-87
2022/05/19 10:15:39;;;;;;;11.93;7.80;;;;;;;23.92;25.73;102485.63;4941587;28;20035;-90
2022/05/19 10:18:15;;;;;;;19.60;15.90;;;;;;;23.87;27.27;102438.41;4989949;23;20678;-91
2022/05/19 10:20:45;;;;;;;3.60;1.60;;;;;;;24.01;25.74;102455.84;4969453;28;20109;-87
2022/05/19 10:23:48;;;;;;;3.20;1.80;;;;;;;23.86;26.33;102472.88;4963574;28;20030;-90
2022/05/19 10:26:37;;;;;;;5.30;1.60;;;;;;;24.08;26.77;102472.06;4964490;28;20030;-90
2022/05/19 10:32:51;;;;;;;2.33;1.52;;;;;;;24.85;24.43;102470.41;4963418;28;20519;-86
2022/05/19 10:35:35;;;;;;;4.15;2.08;;;;;;;24.94;24.67;102463.53;4939021;28;20050;-86
2022/05/19 10:38:27;;;;;;;6.03;3.15;;;;;;;24.82;24.67;102454.78;4965225;28;20043;-90
2022/05/19 10:41:27;;;;;;;7.10;2.92;;;;;;;24.63;23.83;102452.75;4967913;28;21656;-91
2022/05/19 10:43:56;;;;;;;10.10;4.32;;;;;;;24.62;24.56;102453.72;4951038;28;20066;-86
2022/05/19 10:46:27;;;;;;;4.53;1.70;;;;;;;24.57;22.61;102450.59;4967022;28;20031;-86
2022/05/19 10:49:01;;;;;;;3.83;2.20;;;;;;;24.49;23.38;102451.22;4951342;28;20038;-86
2022/05/19 10:51:37;;;;;;;3.97;2.40;;;;;;;24.36;24.25;102434.63;4964525;28;20030;-92
2022/05/19 10:54:36;;;;;;;7.35;2.50;;;;;;;24.45;22.86;102449.75;4962954;28;20027;-85
2022/05/19 10:57:21;;;;;;;6.95;2.03;;;;;;;24.33;25.89;102423.44;4965454;28;20042;-86
2022/05/19 11:00:19;;;;;;;6.65;1.90;;;;;;;24.55;26.35;102437.47;4952702;28;20054;-84
2022/05/19 11:03:10;;;;;;;4.63;2.03;;;;;;;24.48;24.82;102430.16;4959052;28;20054;-88
2022/05/19 11:06:09;;;;;;;4.05;1.95;;;;;;;24.60;24.46;102430.03;4947921;28;20135;-89
2022/05/19 11:08:53;;;;;;;3.10;1.65;;;;;;;24.86;23.75;102416.50;4966026;28;20102;-89
2022/05/19 11:11:34;;;;;;;2.22;1.70;;;;;;;25.08;22.54;102405.88;4965736;28;20035;-90
2022/05/19 11:14:13;;;;;;;7.03;2.00;;;;;;;25.34;23.88;102408.16;4951690;28;20125;-86
2022/05/19 11:17:02;;;;;;;5.60;2.17;;;;;;;25.18;24.10;102411.25;4965553;28;20045;-86
2022/05/19 11:19:31;;;;;;;4.32;2.13;;;;;;;25.19;23.57;102397.03;4963762;28;20650;-88
2022/05/19 11:22:09;;;;;;;9.85;5.03;;;;;;;24.96;23.77;102390.94;4948542;28;20050;-87
2022/05/19 11:26:23;;;;;;;3.95;2.00;;;;;;;24.82;24.64;102389.44;4964466;28;20225;-87
2022/05/19 11:27:24;;;;;;;6.90;2.03;;;;;;;24.99;24.47;102389.88;4952673;28;20097;-87
2022/05/19 11:29:54;;;;;;;4.93;2.03;;;;;;;25.08;24.82;102384.69;4955981;28;20398;-89
2022/05/19 11:32:22;;;;;;;3.22;1.90;;;;;;;25.38;25.87;102380.44;4934034;28;20038;-87
2022/05/19 11:34:57;;;;;;;3.60;1.83;;;;;;;25.52;22.50;102382.75;4934348;28;20034;-91
2022/05/19 11:37:31;;;;;;;3.25;2.00;;;;;;;25.93;22.40;102376.59;4938128;28;20038;-91
2022/05/19 11:40:18;;;;;;;4.55;1.90;;;;;;;26.17;23.07;102372.78;4972643;28;20026;-88
2022/05/19 11:43:05;;;;;;;3.97;2.00;;;;;;;25.99;23.17;102381.38;4954182;28;20130;-86